»·PEaware :: N7DJ KFLG-KPSP

N7DJ :: KFLG-KPSP

FLIGHT INFORMATION

Flight Status: Arrived
Operator: Privately registered:
United States
More flights under this callsign
Pilot: Don J. (45483)
Aircraft: CANADAIR CL-600 CHALLENGER
(CL60)
More flights by this aircraft type
Origin: KFLG Flagstaff Pulliam
United States
Destination: KPSP Palm Springs Intl
United States
More flights between these airports :: More routes between these airports
Route: FLG1 OATES PKE UBABE SBONO1
File this flight plan on PilotEdge
Remarks: RMK / SIMBRIEF
Altitude:
(Current/Filed)
32,000ft
Speed:
(Current/Filed)
468kts
Departed: 26-Nov-23 10:08 AM
Arrived: 26-Nov-23 10:59 AM
Distance/Time
Traveled:
252nm/0:51
Distance/Time
To Go:
Arrived

Flight Plot

Page will automatically refresh every two minutes.

Flight plan parsing failed; only flown route is shown


Map Options




Map Legend


Flown Route
Filed Route
Departure Airport
Arrival Airport
Navaid (VOR, NDB)
Fix

Horizontal Profiles

Position Reports

Time Latitude Longitude Heading Altitude Ground
Speed
26-Nov-23 09:27 35.136041 -111.676255 41 7009ft 0kts
26-Nov-23 09:28 35.136041 -111.676255 41 7009ft 0kts
26-Nov-23 09:29 35.136041 -111.676255 41 7009ft 0kts
26-Nov-23 09:30 35.136041 -111.676255 41 7009ft 0kts
26-Nov-23 09:31 35.136041 -111.676255 41 7009ft 0kts
26-Nov-23 09:32 35.136041 -111.676255 41 7009ft 0kts
26-Nov-23 09:33 35.136041 -111.676255 41 7009ft 0kts
26-Nov-23 09:34 35.136041 -111.676255 41 7009ft 0kts
26-Nov-23 09:35 35.136041 -111.676255 41 7009ft 0kts
26-Nov-23 09:36 35.136041 -111.676255 41 7009ft 0kts
26-Nov-23 09:37 35.136041 -111.676255 41 7009ft 0kts
26-Nov-23 09:38 35.136041 -111.676255 41 7009ft 0kts
26-Nov-23 09:39 35.136041 -111.676255 41 7009ft 0kts
26-Nov-23 09:40 35.136041 -111.676255 41 7009ft 0kts
26-Nov-23 09:41 35.136041 -111.676255 41 7009ft 0kts
26-Nov-23 09:42 35.136041 -111.676255 41 7009ft 0kts
26-Nov-23 09:43 35.136041 -111.676255 41 7009ft 0kts
26-Nov-23 09:44 35.136041 -111.676255 41 7009ft 0kts
26-Nov-23 09:45 35.136041 -111.676255 41 7009ft 0kts
26-Nov-23 09:46 35.136041 -111.676255 41 7009ft 0kts
26-Nov-23 09:47 35.136041 -111.676255 41 7009ft 0kts
26-Nov-23 09:49 35.136041 -111.676255 41 7009ft 0kts
26-Nov-23 09:50 35.136041 -111.676255 41 7009ft 0kts
26-Nov-23 09:51 35.136041 -111.676255 41 7009ft 0kts
26-Nov-23 09:52 35.136041 -111.676255 41 7009ft 0kts
26-Nov-23 09:53 35.136041 -111.676255 41 7009ft 0kts
26-Nov-23 09:54 35.136041 -111.676255 41 7009ft 0kts
26-Nov-23 09:55 35.136041 -111.676255 41 7009ft 0kts
26-Nov-23 09:56 35.136041 -111.676255 41 7009ft 0kts
26-Nov-23 09:57 35.136917 -111.674610 41 7008ft 12kts
26-Nov-23 09:58 35.140724 -111.670573 41 7006ft 22kts
26-Nov-23 09:59 35.144701 -111.666334 40 6993ft 23kts
26-Nov-23 10:00 35.146247 -111.664446 126 6987ft 0kts
26-Nov-23 10:01 35.146172 -111.664786 219 6988ft 7kts
26-Nov-23 10:02 35.142680 -111.668505 221 7000ft 17kts
26-Nov-23 10:03 35.137975 -111.673453 221 7009ft 27kts
26-Nov-23 10:04 35.132344 -111.679501 220 6998ft 16kts
26-Nov-23 10:05 35.131860 -111.679634 139 6998ft 0kts
26-Nov-23 10:06 35.131860 -111.679634 139 6998ft 0kts
26-Nov-23 10:07 35.131723 -111.678404 40 7005ft 6kts
26-Nov-23 10:08 35.157353 -111.648006 70 8316ft 192kts
26-Nov-23 10:09 35.116993 -111.625649 215 10515ft 236kts
26-Nov-23 10:10 35.065726 -111.674629 216 12536ft 232kts
26-Nov-23 10:11 34.995985 -111.693461 187 14586ft 311kts
26-Nov-23 10:12 34.902780 -111.707469 201 16614ft 341kts
26-Nov-23 10:13 34.849327 -111.794216 255 18691ft 336kts
26-Nov-23 10:14 34.822718 -111.902473 256 20754ft 335kts
26-Nov-23 10:15 34.795919 -112.011124 255 22831ft 335kts
26-Nov-23 10:15 34.773518 -112.101650 255 24542ft 337kts
26-Nov-23 10:17 34.741534 -112.230429 255 26860ft 348kts
26-Nov-23 10:18 34.713172 -112.344077 255 28808ft 357kts
26-Nov-23 10:18 34.688778 -112.441425 255 30434ft 366kts
26-Nov-23 10:19 34.658863 -112.560302 254 32235ft 373kts
26-Nov-23 10:20 34.626935 -112.686635 253 32254ft 405kts
26-Nov-23 10:22 34.587836 -112.840383 253 32210ft 409kts
26-Nov-23 10:22 34.559702 -112.950483 253 32199ft 409kts
26-Nov-23 10:23 34.525762 -113.082718 253 32210ft 410kts
26-Nov-23 10:24 34.491561 -113.215303 253 32201ft 410kts
26-Nov-23 10:25 34.457232 -113.347734 253 32201ft 411kts
26-Nov-23 10:26 34.422732 -113.480157 253 32177ft 412kts
26-Nov-23 10:27 34.387948 -113.613013 253 32156ft 412kts
26-Nov-23 10:28 34.353240 -113.744929 252 32146ft 412kts
26-Nov-23 10:29 34.318179 -113.877527 252 32161ft 414kts
26-Nov-23 10:31 34.277086 -114.032114 253 32120ft 414kts
26-Nov-23 10:31 34.247639 -114.142353 252 32143ft 414kts
26-Nov-23 10:32 34.212091 -114.274836 252 32149ft 415kts
26-Nov-23 10:33 34.176386 -114.407256 252 31685ft 414kts
26-Nov-23 10:34 34.140881 -114.538311 252 30029ft 413kts
26-Nov-23 10:35 34.105057 -114.669986 253 28253ft 411kts
26-Nov-23 10:36 34.080915 -114.803257 258 26452ft 403kts
26-Nov-23 10:37 34.058285 -114.934000 258 24730ft 397kts
26-Nov-23 10:38 34.035794 -115.063171 258 24391ft 396kts
26-Nov-23 10:39 34.012941 -115.193546 258 24113ft 398kts
26-Nov-23 10:40 33.990895 -115.318500 258 22009ft 375kts
26-Nov-23 10:41 33.969937 -115.436583 258 19983ft 351kts
26-Nov-23 10:42 33.949993 -115.548333 258 18076ft 334kts
26-Nov-23 10:43 33.930854 -115.655034 258 16039ft 324kts
26-Nov-23 10:44 33.913869 -115.757655 265 14244ft 302kts
26-Nov-23 10:45 33.907643 -115.858022 264 12467ft 297kts
26-Nov-23 10:46 33.901596 -115.953199 263 11108ft 271kts
26-Nov-23 10:47 33.896093 -116.038612 263 11093ft 250kts
26-Nov-23 10:48 33.858474 -116.100239 202 9969ft 254kts
26-Nov-23 10:49 33.796411 -116.134411 202 8752ft 241kts
26-Nov-23 10:50 33.735870 -116.167823 202 7539ft 234kts
26-Nov-23 10:51 33.688983 -116.216921 263 6309ft 236kts
26-Nov-23 10:52 33.681706 -116.294862 265 5083ft 232kts
26-Nov-23 10:53 33.678073 -116.362902 296 4035ft 174kts
26-Nov-23 10:54 33.712453 -116.399577 324 3247ft 161kts
26-Nov-23 10:55 33.747966 -116.432361 323 2323ft 159kts
26-Nov-23 10:56 33.780790 -116.462700 323 1467ft 134kts
26-Nov-23 10:57 33.809831 -116.489755 321 766ft 131kts
26-Nov-23 10:58 33.832692 -116.510334 323 443ft 40kts
26-Nov-23 10:59 33.832897 -116.512458 196 447ft 0kts
26-Nov-23 11:00 33.830546 -116.510586 142 440ft 21kts
26-Nov-23 11:01 33.825916 -116.507008 217 427ft 15kts
26-Nov-23 11:02 33.825816 -116.508124 249 428ft 0kts
26-Nov-23 11:03 33.825816 -116.508124 249 428ft 0kts

Navigation Log

Ident Type
Flight plan parsing failed, navigation log unavailable